createdAt,value
2019-04-13T00:03:04.165Z,14.97
2019-04-13T00:06:40.593Z,16.40
2019-04-13T00:10:04.007Z,14.60
2019-04-13T00:13:27.021Z,15.13
2019-04-13T00:16:50.026Z,15.10
2019-04-13T00:20:13.158Z,16.60
2019-04-13T00:23:36.181Z,14.90
2019-04-13T00:26:59.276Z,14.53
2019-04-13T00:30:22.667Z,15.57
2019-04-13T00:33:45.726Z,15.83
2019-04-13T00:37:08.742Z,16.67
2019-04-13T00:40:31.738Z,14.47
2019-04-13T00:43:54.806Z,13.53
2019-04-13T00:47:18.023Z,23.47
2019-04-13T00:50:41.086Z,15.17
2019-04-13T00:54:04.126Z,15.70
2019-04-13T00:57:28.962Z,14.97
2019-04-13T01:00:52.230Z,13.93
2019-04-13T01:04:16.430Z,12.53
2019-04-13T01:07:39.487Z,12.50
2019-04-13T01:11:02.754Z,14.93
2019-04-13T01:14:25.766Z,13.63
2019-04-13T01:17:48.817Z,12.70
2019-04-13T01:21:12.150Z,16.37
2019-04-13T01:24:35.168Z,14.17
2019-04-13T01:27:58.426Z,15.90
2019-04-13T01:31:21.826Z,14.73
2019-04-13T01:34:44.876Z,15.53
2019-04-13T01:38:07.987Z,15.67
2019-04-13T01:41:32.221Z,14.50
2019-04-13T01:44:55.508Z,15.27
2019-04-13T01:48:18.544Z,14.57
2019-04-13T01:51:41.866Z,18.13
2019-04-13T01:55:05.043Z,15.73
2019-04-13T01:58:28.218Z,14.40
2019-04-13T02:02:09.702Z,14.83
2019-04-13T02:05:44.037Z,15.03
2019-04-13T02:09:20.383Z,14.70
2019-04-13T02:12:43.387Z,14.10
2019-04-13T02:16:06.472Z,14.60
2019-04-13T02:19:29.665Z,16.00
2019-04-13T02:22:52.640Z,15.17
2019-04-13T02:26:15.677Z,16.73
2019-04-13T02:29:38.657Z,14.73
2019-04-13T02:33:01.817Z,16.90
2019-04-13T02:36:26.157Z,13.50
2019-04-13T02:39:49.451Z,16.43
2019-04-13T02:43:12.641Z,14.83
2019-04-13T02:46:35.955Z,15.93
2019-04-13T02:49:59.160Z,15.83
2019-04-13T02:53:23.306Z,15.20
2019-04-13T02:56:46.296Z,16.27
2019-04-13T03:00:11.955Z,15.40
2019-04-13T03:03:36.439Z,17.87
2019-04-13T03:06:59.425Z,17.23
2019-04-13T03:10:22.457Z,17.73
2019-04-13T03:13:45.480Z,15.57
2019-04-13T03:17:31.045Z,19.80
2019-04-13T03:20:54.451Z,16.33
2019-04-13T03:24:17.566Z,16.77
2019-04-13T03:27:40.577Z,15.50
2019-04-13T03:31:03.580Z,16.10
2019-04-13T03:34:28.561Z,15.47
2019-04-13T03:37:51.607Z,15.80
2019-04-13T03:41:14.892Z,16.60
2019-04-13T03:44:37.899Z,18.13
2019-04-13T03:48:00.859Z,19.87
2019-04-13T03:51:23.887Z,15.37
2019-04-13T03:54:46.887Z,19.43
2019-04-13T03:58:09.892Z,18.37
2019-04-13T04:01:33.520Z,19.63
2019-04-13T04:04:56.791Z,20.47
2019-04-13T04:08:19.777Z,18.70
2019-04-13T04:11:43.774Z,18.13
2019-04-13T04:15:08.120Z,20.27
2019-04-13T04:18:31.395Z,20.07
2019-04-13T04:21:54.408Z,20.40
2019-04-13T04:25:17.692Z,21.53
2019-04-13T04:28:40.664Z,20.70
2019-04-13T04:32:03.673Z,24.87
2019-04-13T04:35:26.689Z,27.17
2019-04-13T04:38:49.700Z,21.23
2019-04-13T04:42:12.745Z,23.17
2019-04-13T04:45:36.048Z,23.53
2019-04-13T04:48:59.409Z,23.27
2019-04-13T04:52:22.414Z,20.70
2019-04-13T04:55:45.383Z,25.47
2019-04-13T04:59:09.730Z,22.70
2019-04-13T05:02:33.073Z,24.90
2019-04-13T05:05:56.419Z,26.47
2019-04-13T05:09:19.466Z,22.87
2019-04-13T05:12:42.497Z,23.40
2019-04-13T05:16:05.486Z,24.17
2019-04-13T05:19:28.555Z,25.93
2019-04-13T05:22:51.547Z,22.80
2019-04-13T05:26:14.982Z,23.97
2019-04-13T05:29:41.491Z,23.90
2019-04-13T05:33:04.522Z,24.43
2019-04-13T05:36:27.871Z,25.10
2019-04-13T05:39:50.933Z,22.40
2019-04-13T05:43:14.283Z,24.33
2019-04-13T05:46:38.738Z,24.67
2019-04-13T05:50:01.814Z,24.50
2019-04-13T05:53:25.263Z,22.17
2019-04-13T05:56:48.251Z,27.40
2019-04-13T06:00:12.464Z,23.47
2019-04-13T06:03:35.490Z,22.77
2019-04-13T06:07:00.107Z,30.10
2019-04-13T06:10:23.417Z,23.20
2019-04-13T06:13:46.437Z,21.97
2019-04-13T06:17:09.422Z,21.40
2019-04-13T06:20:32.455Z,22.47
2019-04-13T06:23:55.454Z,20.77
2019-04-13T06:27:18.873Z,24.07
2019-04-13T06:31:00.102Z,22.77
2019-04-13T06:34:54.848Z,27.63
2019-04-13T06:38:21.586Z,22.43
2019-04-13T06:41:44.297Z,21.77
2019-04-13T06:45:13.299Z,22.00
2019-04-13T06:48:37.737Z,22.20
2019-04-13T06:52:01.633Z,22.73
2019-04-13T06:55:26.201Z,21.97
2019-04-13T06:58:51.717Z,22.73
2019-04-13T07:02:14.559Z,21.17
2019-04-13T07:05:38.436Z,21.30
2019-04-13T07:09:21.217Z,20.97
2019-04-13T07:13:05.949Z,23.30
2019-04-13T07:16:35.197Z,22.80
2019-04-13T07:20:02.765Z,24.07
2019-04-13T07:23:26.698Z,19.87
2019-04-13T07:26:49.847Z,18.10
2019-04-13T07:30:14.234Z,16.83
2019-04-13T07:33:41.464Z,16.13
2019-04-13T07:37:04.586Z,16.20
2019-04-13T07:40:28.024Z,18.37
2019-04-13T07:43:51.096Z,19.40
2019-04-13T07:47:27.639Z,17.77
2019-04-13T07:50:57.103Z,16.27
2019-04-13T07:54:20.826Z,14.23
2019-04-13T07:57:43.839Z,12.93
2019-04-13T08:01:09.399Z,13.30
2019-04-13T08:04:32.584Z,14.40
2019-04-13T08:07:55.638Z,12.93
2019-04-13T08:11:18.800Z,11.57
2019-04-13T08:14:41.847Z,11.70
2019-04-13T08:18:05.104Z,14.70
2019-04-13T08:21:33.072Z,11.67
2019-04-13T08:24:54.419Z,11.70
2019-04-13T08:28:17.494Z,12.93
2019-04-13T08:31:41.350Z,12.33
2019-04-13T08:35:04.366Z,13.60
2019-04-13T08:38:28.693Z,14.33
2019-04-13T08:41:52.280Z,12.97
2019-04-13T08:45:15.481Z,15.87
2019-04-13T08:48:40.214Z,17.40
2019-04-13T08:52:03.299Z,17.87
2019-04-13T08:55:26.690Z,19.83
2019-04-13T08:58:49.743Z,20.10
2019-04-13T09:02:12.803Z,18.77
2019-04-13T09:05:36.285Z,18.93
2019-04-13T09:09:02.824Z,17.30
2019-04-13T09:12:26.774Z,17.37
2019-04-13T09:15:51.213Z,18.67
2019-04-13T09:19:40.815Z,17.77
2019-04-13T09:23:06.769Z,16.27
2019-04-13T09:26:29.888Z,13.77
2019-04-13T09:29:56.032Z,13.43
2019-04-13T09:33:19.147Z,13.27
2019-04-13T09:36:42.303Z,13.77
2019-04-13T09:40:09.057Z,14.33
2019-04-13T09:43:57.711Z,15.73
2019-04-13T09:47:25.677Z,15.63
2019-04-13T09:50:48.730Z,14.07
2019-04-13T09:54:11.705Z,14.10
2019-04-13T09:57:35.010Z,12.77
2019-04-13T10:01:01.515Z,12.93
2019-04-13T10:04:23.084Z,12.68
2019-04-13T10:07:46.098Z,12.50
2019-04-13T10:11:09.712Z,12.43
2019-04-13T10:14:52.625Z,13.93
2019-04-13T10:18:26.765Z,13.78
2019-04-13T10:21:50.525Z,15.00
2019-04-13T10:25:14.637Z,15.35
2019-04-13T10:28:40.391Z,16.05
2019-04-13T10:32:03.427Z,15.40
2019-04-13T10:35:26.460Z,15.88
2019-04-13T10:38:49.456Z,21.60
2019-04-13T10:42:12.492Z,13.50
2019-04-13T10:46:00.820Z,12.85
2019-04-13T10:49:34.487Z,11.12
2019-04-13T10:52:56.706Z,13.75
2019-04-13T10:56:20.027Z,13.95
2019-04-13T10:59:43.041Z,9.30
2019-04-13T11:03:06.034Z,8.85
2019-04-13T11:06:29.028Z,8.40
2019-04-13T11:09:52.384Z,10.28
2019-04-13T11:13:15.617Z,8.85
2019-04-13T11:16:41.006Z,11.60
2019-04-13T11:20:04.678Z,10.32
2019-04-13T11:23:35.845Z,11.80
2019-04-13T11:26:52.891Z,14.33
2019-04-13T11:30:16.292Z,11.10
2019-04-13T11:33:39.283Z,11.40
2019-04-13T11:37:02.295Z,9.97
2019-04-13T11:40:25.308Z,10.27
2019-04-13T11:44:07.754Z,10.57
2019-04-13T11:48:05.443Z,11.83
2019-04-13T11:51:32.139Z,11.83
2019-04-13T11:54:55.304Z,9.78
2019-04-13T11:58:18.311Z,10.05
2019-04-13T12:02:03.692Z,9.25
2019-04-13T12:05:39.002Z,10.38
2019-04-13T12:09:09.373Z,10.72
2019-04-13T12:12:55.057Z,9.53
2019-04-13T12:16:37.838Z,6.97
2019-04-13T12:20:08.594Z,6.72
2019-04-13T12:23:32.021Z,7.95
2019-04-13T12:26:55.072Z,6.78
2019-04-13T12:30:22.510Z,6.83
2019-04-13T12:33:45.811Z,6.42
2019-04-13T12:37:11.636Z,6.22
2019-04-13T12:40:43.543Z,6.53
2019-04-13T12:44:09.200Z,7.35
2019-04-13T12:47:32.324Z,7.00
2019-04-13T12:50:55.667Z,6.47
2019-04-13T12:54:18.690Z,6.92
2019-04-13T12:57:41.691Z,6.28
2019-04-13T13:01:27.746Z,6.42
2019-04-13T13:05:19.076Z,5.67
2019-04-13T13:08:42.080Z,5.60
2019-04-13T13:12:06.630Z,7.78
2019-04-13T13:15:29.922Z,7.40
2019-04-13T13:18:53.022Z,6.60
2019-04-13T13:22:17.661Z,8.48
2019-04-13T13:25:40.828Z,8.18
2019-04-13T13:29:03.790Z,8.63
2019-04-13T13:32:26.831Z,7.83
2019-04-13T13:35:49.833Z,7.72
2019-04-13T13:39:13.981Z,6.83
2019-04-13T13:42:38.657Z,7.27
2019-04-13T13:46:02.405Z,7.63
2019-04-13T13:49:25.569Z,8.30
2019-04-13T13:52:48.564Z,13.70
2019-04-13T13:56:11.618Z,8.30
2019-04-13T13:59:34.604Z,9.67
2019-04-13T14:02:57.890Z,6.85
2019-04-13T14:06:21.296Z,7.37
2019-04-13T14:10:03.881Z,7.37
2019-04-13T14:13:29.526Z,7.40
2019-04-13T14:16:51.747Z,7.50
2019-04-13T14:20:18.876Z,6.65
2019-04-13T14:23:42.300Z,7.15
2019-04-13T14:27:05.588Z,8.63
2019-04-13T14:30:28.953Z,8.90
2019-04-13T14:33:52.400Z,9.20
2019-04-13T14:37:17.578Z,9.10
2019-04-13T14:40:40.691Z,8.55
2019-04-13T14:44:03.826Z,10.55
2019-04-13T14:47:26.889Z,8.58
2019-04-13T14:50:50.248Z,8.75
2019-04-13T14:54:13.623Z,8.48
2019-04-13T14:57:39.052Z,8.13
2019-04-13T15:01:01.660Z,9.65
2019-04-13T15:04:25.043Z,12.98
2019-04-13T15:07:48.041Z,8.80
2019-04-13T15:11:16.881Z,8.70
2019-04-13T15:14:36.774Z,8.45
2019-04-13T15:18:09.662Z,9.85
2019-04-13T15:21:33.690Z,9.88
2019-04-13T15:24:58.642Z,9.30
2019-04-13T15:28:21.275Z,12.82
2019-04-13T15:31:46.817Z,13.45
2019-04-13T15:35:13.645Z,9.60
2019-04-13T15:38:35.259Z,8.35
2019-04-13T15:42:05.822Z,9.10
2019-04-13T15:45:24.555Z,8.65
2019-04-13T15:48:49.455Z,7.85
2019-04-13T15:52:12.772Z,9.33
2019-04-13T15:55:35.847Z,7.90
2019-04-13T15:58:59.413Z,9.68
2019-04-13T16:02:22.918Z,8.80
2019-04-13T16:05:47.394Z,8.70
2019-04-13T16:09:37.071Z,9.70
2019-04-13T16:13:02.543Z,11.63
2019-04-13T16:16:26.189Z,11.53
2019-04-13T16:19:50.244Z,11.50
2019-04-13T16:23:13.386Z,12.55
2019-04-13T16:26:36.402Z,12.05
2019-04-13T16:30:17.896Z,12.70
2019-04-13T16:34:00.935Z,13.50
2019-04-13T16:37:30.459Z,11.95
2019-04-13T16:40:54.305Z,12.37
2019-04-13T16:44:28.877Z,14.20
2019-04-13T16:48:06.825Z,14.17
2019-04-13T16:51:52.458Z,15.00
2019-04-13T16:55:26.532Z,15.10
2019-04-13T16:59:20.127Z,17.47
2019-04-13T17:02:49.972Z,14.37
2019-04-13T17:06:12.962Z,15.43
2019-04-13T17:09:37.077Z,14.20
2019-04-13T17:13:01.117Z,13.83
2019-04-13T17:16:25.513Z,12.53
2019-04-13T17:19:57.797Z,12.83
2019-04-13T17:23:52.787Z,14.00
2019-04-13T17:27:34.225Z,12.53
2019-04-13T17:31:16.864Z,13.27
2019-04-13T17:35:03.932Z,14.30
2019-04-13T17:38:28.752Z,11.93
2019-04-13T17:42:11.892Z,14.57
2019-04-13T17:46:03.361Z,14.90
2019-04-13T17:49:45.043Z,13.83
2019-04-13T17:53:31.034Z,15.30
2019-04-13T17:56:55.220Z,16.77
2019-04-13T18:00:56.367Z,16.33
2019-04-13T18:04:41.736Z,20.37
2019-04-13T18:08:35.705Z,19.30
2019-04-13T18:12:20.693Z,19.90
2019-04-13T18:15:53.220Z,18.83
2019-04-13T18:19:21.276Z,18.37
2019-04-13T18:22:46.757Z,17.80
2019-04-13T18:26:10.675Z,19.73
2019-04-13T18:29:34.655Z,18.97
2019-04-13T18:32:57.857Z,20.93
2019-04-13T18:36:21.348Z,23.17
2019-04-13T18:39:44.398Z,22.87
2019-04-13T18:43:15.081Z,20.87
2019-04-13T18:46:32.325Z,20.77
2019-04-13T18:49:55.399Z,22.37
2019-04-13T18:53:19.120Z,21.77
2019-04-13T18:56:43.954Z,24.73
2019-04-13T19:00:07.734Z,22.97
2019-04-13T19:03:31.939Z,27.53
2019-04-13T19:06:55.034Z,25.53
2019-04-13T19:10:18.060Z,24.10
2019-04-13T19:13:41.499Z,27.17
2019-04-13T19:17:04.610Z,24.53
2019-04-13T19:20:29.995Z,25.90
2019-04-13T19:23:53.049Z,24.93
2019-04-13T19:27:17.153Z,27.37
2019-04-13T19:30:40.210Z,26.80
2019-04-13T19:34:03.187Z,28.27
2019-04-13T19:37:26.569Z,28.60
2019-04-13T19:40:49.885Z,28.90
2019-04-13T19:44:12.912Z,27.53
2019-04-13T19:47:35.879Z,25.90
2019-04-13T19:51:01.782Z,27.53
2019-04-13T19:54:25.492Z,26.40
2019-04-13T19:57:48.841Z,26.30
2019-04-13T20:01:13.981Z,27.03
2019-04-13T20:04:37.065Z,28.13
2019-04-13T20:08:00.075Z,29.20
2019-04-13T20:11:23.066Z,34.50
2019-04-13T20:14:46.260Z,32.47
2019-04-13T20:18:09.289Z,34.93
2019-04-13T20:21:32.264Z,36.80
2019-04-13T20:24:56.395Z,39.30
2019-04-13T20:28:20.069Z,32.60
2019-04-13T20:31:44.252Z,32.73
2019-04-13T20:35:08.409Z,36.83
2019-04-13T20:38:32.559Z,35.93
2019-04-13T20:42:01.199Z,36.63
2019-04-13T20:45:22.155Z,41.37
2019-04-13T20:48:46.817Z,43.17
2019-04-13T20:52:10.039Z,41.47
2019-04-13T20:55:33.008Z,40.27
2019-04-13T20:58:57.491Z,45.17
2019-04-13T21:02:22.005Z,45.07
2019-04-13T21:05:45.229Z,40.53
2019-04-13T21:09:11.585Z,39.83
2019-04-13T21:12:34.893Z,38.10
2019-04-13T21:15:59.653Z,39.10
2019-04-13T21:19:24.164Z,33.83
2019-04-13T21:22:48.493Z,34.87
2019-04-13T21:26:11.656Z,37.40
2019-04-13T21:29:35.071Z,35.93
2019-04-13T21:33:00.439Z,34.17
2019-04-13T21:36:23.990Z,33.67
2019-04-13T21:39:48.270Z,34.10
2019-04-13T21:43:11.415Z,35.17
2019-04-13T21:46:34.949Z,35.03
2019-04-13T21:50:11.604Z,30.30
2019-04-13T21:53:46.374Z,32.63
2019-04-13T21:57:09.510Z,34.33
2019-04-13T22:00:55.481Z,34.40
2019-04-13T22:04:19.712Z,33.27
2019-04-13T22:07:43.798Z,32.57
2019-04-13T22:11:08.209Z,39.40
2019-04-13T22:14:41.469Z,35.80
2019-04-13T22:17:57.551Z,32.73
2019-04-13T22:21:21.917Z,32.87
2019-04-13T22:24:46.235Z,34.07
2019-04-13T22:28:13.585Z,34.33
2019-04-13T22:31:53.462Z,34.87
2019-04-13T22:35:54.771Z,32.73
2019-04-13T22:39:18.200Z,31.40
2019-04-13T22:42:42.524Z,30.77
2019-04-13T22:46:06.424Z,33.63
2019-04-13T22:49:38.490Z,30.67
2019-04-13T22:53:19.944Z,34.60
2019-04-13T22:56:50.856Z,33.40
2019-04-13T23:00:17.949Z,39.93
2019-04-13T23:03:43.949Z,35.93
2019-04-13T23:07:07.087Z,36.53
2019-04-13T23:10:31.018Z,39.60
2019-04-13T23:13:54.163Z,35.60
2019-04-13T23:17:18.017Z,38.13
2019-04-13T23:20:41.144Z,38.23
2019-04-13T23:24:04.238Z,37.53
2019-04-13T23:27:30.841Z,35.10
2019-04-13T23:30:53.891Z,36.53
2019-04-13T23:34:18.119Z,38.70
2019-04-13T23:37:41.469Z,37.00
2019-04-13T23:41:04.590Z,45.30
2019-04-13T23:44:29.625Z,39.20
2019-04-13T23:47:53.723Z,36.43
2019-04-13T23:51:18.251Z,38.53
2019-04-13T23:54:43.630Z,44.53
2019-04-13T23:58:36.339Z,43.10
